Startpagina
METAR-TAF:

METAR-TAF

Vliegvelden :

Tunis, Tunesië

Luchthaven Tunis-Carthage

breedte: 36-50N, lengte: 010-14E, hoogte: 3 m

Actueel weer

Dit bericht is 31 minuten geleden gemaakt, om 12:00 UTC
Wind 5 kt uit variabele richting
Temperatuur 19°C
Vochtigheid 52%
Druk 1019 hPa
Zicht 10 km of meer
Weinig wolken op 2600 ft

METAR: DTTA 271200Z VRB05KT 9999 FEW026 19/09 Q1019 NOSIG

Tijdstip: 13:31 (12:31 UTC)

Verwachting

Dit bericht is 1 uur en het 31 minuten geleden gemaakt, om 11:00 UTC
Verwachting geldig van 27 om 12 UTC tot 28 om 12 UTC
Wind 10 kt uit het noordoosten
Zicht: 8000 m
Verspreide wolken op 2600 ft
Wijzigt naar
van 27 om 18 UTC tot 27 om 20 UTC
Wind 8 kt uit het noordnoordwesten

TAF: DTTA 271100Z 2712/2812 04010KT 8000 SCT026 BECMG 2718/2720 34008KT

Waarnemingen en weersverwachtingen van meer dan 4000 vliegvelden (METAR en TAF).

De beschikbare stations zijn de gele en rode punten op de kaart.

Ga met uw muis naar het station om de naam te zien.

Klik dan om waarnemingen en weersverwachtingen te zien.

kaart wijzigen: klik op de groene knoppen met een zwart kruis om in te zoomen, op de groene knop met een streepje om uit te zoomen of op de groene pijlen voor aangrenzende kaarten.


METAR-TAF: